SWO VIRTUAL AIRLINE

SWO VIRTUAL AIRLINES Eine deutsche virtuelle Airline für jeden Sim-Pilot




 METAR AND TAF INFORMATION
METAR FOR VECC
ADDS - METARS form results

(1659 UTC 18 February 2019)
Data provider http://aviationweather.gov/metar/data/
 
METAR text: VECC 181630Z 00000KT 2800 HZ NSC 19/13 Q1011 NOSIG
Conditions at: VECC (CALCUTTA/DUM DUM, IN) observed 1630 UTC 18 February 2019
Temperature: 19.0°C (66°F)
Dewpoint: 13.0°C (55°F) [RH = 68%]
Pressure (altimeter): 29.85 inches Hg (1011.0 mb)
Winds: calm
Visibility: 1.74 miles (2.80 km)
Ceiling: at least 12,000 feet AGL
Clouds: sky clear below 12,000 feet AGL
Weather: HZ  (haze)

METAR text: VECC 181600Z 00000KT 3200 HZ NSC 20/13 Q1011 BECMG 3000 HZ
Conditions at: VECC (CALCUTTA/DUM DUM, IN) observed 1600 UTC 18 February 2019
Temperature: 20.0°C (68°F)
Dewpoint: 13.0°C (55°F) [RH = 64%]
Pressure (altimeter): 29.85 inches Hg (1011.0 mb)
Winds: calm
Visibility: 1.99 miles (3.20 km)
Ceiling: at least 12,000 feet AGL
Clouds: sky clear below 12,000 feet AGL
Weather: HZ  (haze)

Forecast for: VECC (CALCUTTA/DUM DUM, IN)
Text: TAF VECC 181400Z 1815/1821 00000KT 3000 HZ NSC
Forecast period: 1500 to 1800 UTC 18 February 2019
Forecast type: FROM: standard forecast or significant change
Winds: calm
Visibility: 1.86 miles (2.99 km)
Ceiling: unknown
Clouds: missing
Weather: HZ  (haze)
Text: BECMG 1818/1820 18005KT 2000 BR
Forecast period: 1800 to 2100 UTC 18 February 2019
Forecast type: BECOMING: Conditions expected to become as follows by 2000 UTC 18 February 2019
Winds: from the S (180 degrees) at 6 MPH (5 knots; 2.6 m/s)
Visibility: 1.24 miles (2.00 km)
Ceiling: unknown
Clouds: missing
Weather: BR  (mist)

 AIRPORT MAP

 RUNWAY INFORMATION
Runway 01L Runway length 7871 ft Runway width 150 ft
Runway elevation 19 ft Runway displaced threshold 0 ft Runway heading 6
Runway 19R Runway length 7871 ft Runway width 150 ft
Runway elevation 19 ft Runway displaced threshold 0 ft Runway heading 186
Runway 01R Runway length 11900 ft Runway width 150 ft
Runway elevation 20 ft Runway displaced threshold 0 ft Runway heading 6
Runway 19L Runway length 11900 ft Runway width 150 ft
Runway elevation 19 ft Runway displaced threshold 1390 ft Runway heading 186

 AIRPORT FREQUENCIES
Type A/G Name KOLKATA RD Frequency 127.3 MHZ
Type ACC Name KOLKATA CO Frequency 119.3 MHZ
Type APP Name KOLKATA AP Frequency 127.9 MHZ
Type APP CONTRO Name KOLKATA CO Frequency 132.45 MHZ
Type ATIS Name ATIS Frequency 126.4 MHZ
Type GND Name KOLKATA GN Frequency 121.9 MHZ
Type RADAR Name Feeder ARE Frequency 127.3 MHZ
Type TWR Name KOLKATA TW Frequency 118.1 MHZ

 AIRPORT NEAR NAVIGATION AIDS
Type VOR-DME Name Kolkata Frequency 112500 KHZ
Type NDB Name Kolkata Frequency 385 KHZ